createdAt,value
2023-09-19T00:00:20.634Z,0.28
2023-09-19T00:01:24.321Z,0.40
2023-09-19T00:02:29.071Z,0.50
2023-09-19T00:03:34.272Z,0.47
2023-09-19T00:04:41.139Z,0.40
2023-09-19T00:05:45.400Z,0.50
2023-09-19T00:06:48.512Z,0.57
2023-09-19T00:08:00.480Z,0.20
2023-09-19T00:09:03.878Z,0.40
2023-09-19T00:10:07.106Z,0.38
2023-09-19T00:11:11.931Z,0.32
2023-09-19T00:12:14.740Z,0.47
2023-09-19T00:13:18.728Z,0.40
2023-09-19T00:14:21.179Z,0.40
2023-09-19T00:15:26.343Z,0.20
2023-09-19T00:16:31.922Z,0.50
2023-09-19T00:17:34.163Z,0.25
2023-09-19T00:18:36.691Z,0.20
2023-09-19T00:19:39.108Z,0.30
2023-09-19T00:20:54.233Z,0.30
2023-09-19T00:21:57.460Z,0.40
2023-09-19T00:23:10.290Z,0.30
2023-09-19T00:24:13.291Z,0.40
2023-09-19T00:25:16.737Z,0.45
2023-09-19T00:26:19.908Z,0.30
2023-09-19T00:27:21.860Z,0.45
2023-09-19T00:28:24.321Z,0.30
2023-09-19T00:29:34.969Z,0.40
2023-09-19T00:30:37.329Z,0.20
2023-09-19T00:31:42.703Z,0.40
2023-09-19T00:32:45.904Z,0.30
2023-09-19T00:33:49.952Z,0.20
2023-09-19T00:34:51.748Z,0.30
2023-09-19T00:36:05.431Z,0.38
2023-09-19T00:37:08.086Z,0.30
2023-09-19T00:38:10.353Z,0.22
2023-09-19T00:39:12.615Z,0.30
2023-09-19T00:40:16.827Z,0.40
2023-09-19T00:41:19.451Z,0.28
2023-09-19T00:42:24.841Z,0.50
2023-09-19T00:43:29.032Z,0.52
2023-09-19T00:44:32.726Z,0.50
2023-09-19T00:45:37.636Z,0.30
2023-09-19T00:46:43.034Z,0.30
2023-09-19T00:47:55.367Z,0.60
2023-09-19T00:48:59.224Z,0.52
2023-09-19T00:50:08.620Z,0.47
2023-09-19T00:51:12.760Z,0.47
2023-09-19T00:52:15.021Z,0.30
2023-09-19T00:53:33.444Z,0.25
2023-09-19T00:54:38.854Z,0.30
2023-09-19T00:55:47.181Z,0.20
2023-09-19T00:56:50.329Z,0.30
2023-09-19T00:57:57.698Z,0.30
2023-09-19T00:58:59.706Z,0.40
2023-09-19T01:00:07.589Z,0.40
2023-09-19T01:01:09.910Z,0.25
2023-09-19T01:02:16.643Z,0.40
2023-09-19T01:03:19.931Z,0.32
2023-09-19T01:04:23.018Z,0.20
2023-09-19T01:05:26.783Z,0.40
2023-09-19T01:06:33.082Z,0.30
2023-09-19T01:07:36.892Z,0.40
2023-09-19T01:08:38.780Z,0.20
2023-09-19T01:09:40.652Z,0.30
2023-09-19T01:11:02.086Z,0.30
2023-09-19T01:12:09.849Z,0.30
2023-09-19T01:14:03.285Z,0.30
2023-09-19T01:15:41.689Z,0.30
2023-09-19T01:17:23.722Z,0.20
2023-09-19T01:19:04.546Z,0.28
2023-09-19T01:20:12.728Z,0.40
2023-09-19T01:21:51.625Z,0.30
2023-09-19T01:23:15.881Z,0.30
2023-09-19T01:24:56.704Z,0.50
2023-09-19T01:26:33.622Z,0.30
2023-09-19T01:27:57.344Z,0.40
2023-09-19T01:29:24.474Z,0.30
2023-09-19T01:30:37.526Z,0.38
2023-09-19T01:31:44.613Z,0.30
2023-09-19T01:32:47.735Z,0.30
2023-09-19T01:34:05.754Z,0.40
2023-09-19T01:35:14.295Z,0.45
2023-09-19T01:36:18.220Z,0.30
2023-09-19T01:37:26.482Z,0.40
2023-09-19T01:38:29.028Z,0.30
2023-09-19T01:39:33.326Z,0.40
2023-09-19T01:40:44.428Z,0.40
2023-09-19T01:42:19.153Z,0.43
2023-09-19T01:43:33.085Z,0.32
2023-09-19T01:45:11.179Z,0.30
2023-09-19T01:46:25.810Z,0.20
2023-09-19T01:47:49.364Z,0.30
2023-09-19T01:49:33.986Z,0.20
2023-09-19T01:51:03.775Z,0.40
2023-09-19T01:52:14.970Z,0.20
2023-09-19T01:53:51.279Z,0.30
2023-09-19T01:55:03.558Z,0.30
2023-09-19T01:56:23.225Z,0.30
2023-09-19T01:57:36.620Z,0.50
2023-09-19T01:58:47.580Z,0.20
2023-09-19T02:00:07.830Z,0.30
2023-09-19T02:01:16.801Z,0.50
2023-09-19T02:02:23.890Z,0.20
2023-09-19T02:03:29.146Z,0.50
2023-09-19T02:04:32.648Z,0.30
2023-09-19T02:05:34.714Z,0.40
2023-09-19T02:06:39.333Z,0.40
2023-09-19T02:07:42.991Z,0.40
2023-09-19T02:08:46.284Z,0.30
2023-09-19T02:09:49.503Z,0.20
2023-09-19T02:10:53.919Z,0.30
2023-09-19T02:11:57.090Z,0.30
2023-09-19T02:13:01.978Z,0.30
2023-09-19T02:14:05.577Z,0.30
2023-09-19T02:15:09.597Z,0.35
2023-09-19T02:16:12.667Z,0.40
2023-09-19T02:17:15.717Z,0.28
2023-09-19T02:18:18.328Z,0.25
2023-09-19T02:19:22.093Z,0.40
2023-09-19T02:20:24.309Z,0.30
2023-09-19T02:21:26.483Z,0.52
2023-09-19T02:22:30.685Z,0.43
2023-09-19T02:23:33.634Z,0.40
2023-09-19T02:24:41.368Z,0.40
2023-09-19T02:25:44.620Z,0.22
2023-09-19T02:26:46.457Z,0.40
2023-09-19T02:27:52.044Z,0.30
2023-09-19T02:28:54.167Z,0.30
2023-09-19T02:29:56.954Z,0.40
2023-09-19T02:31:01.274Z,0.40
2023-09-19T02:32:03.884Z,0.20
2023-09-19T02:33:07.709Z,0.40
2023-09-19T02:34:09.945Z,0.40
2023-09-19T02:35:12.377Z,0.40
2023-09-19T02:36:14.950Z,0.20
2023-09-19T02:37:20.006Z,0.30
2023-09-19T02:38:25.952Z,0.52
2023-09-19T02:39:29.106Z,0.40
2023-09-19T02:40:31.403Z,0.30
2023-09-19T02:41:34.193Z,0.30
2023-09-19T02:42:36.204Z,0.28
2023-09-19T02:43:38.478Z,0.45
2023-09-19T02:44:41.065Z,0.28
2023-09-19T02:45:43.065Z,0.25
2023-09-19T02:46:45.335Z,0.35
2023-09-19T02:47:49.140Z,0.35
2023-09-19T02:48:52.296Z,0.20
2023-09-19T02:49:54.257Z,0.20
2023-09-19T02:50:59.603Z,0.40
2023-09-19T02:52:04.544Z,0.30
2023-09-19T02:53:07.719Z,0.30
2023-09-19T02:54:10.002Z,0.30
2023-09-19T02:55:19.287Z,0.22
2023-09-19T02:56:21.437Z,0.40
2023-09-19T02:57:26.367Z,0.30
2023-09-19T02:58:31.552Z,0.30
2023-09-19T02:59:34.153Z,0.38
2023-09-19T03:00:36.878Z,0.20
2023-09-19T03:01:40.580Z,0.25
2023-09-19T03:02:44.270Z,0.40
2023-09-19T03:03:47.200Z,0.30
2023-09-19T03:04:49.363Z,0.38
2023-09-19T03:05:55.430Z,0.50
2023-09-19T03:07:03.868Z,0.47
2023-09-19T03:08:06.617Z,0.20
2023-09-19T03:09:19.315Z,0.40
2023-09-19T03:10:24.160Z,0.40
2023-09-19T03:11:26.440Z,0.20
2023-09-19T03:12:30.244Z,0.30
2023-09-19T03:13:33.394Z,0.47
2023-09-19T03:14:36.648Z,0.30
2023-09-19T03:15:45.698Z,0.22
2023-09-19T03:16:47.767Z,0.40
2023-09-19T03:17:52.624Z,0.45
2023-09-19T03:18:54.712Z,0.40
2023-09-19T03:19:58.556Z,0.20
2023-09-19T03:21:07.722Z,0.30
2023-09-19T03:22:12.051Z,0.30
2023-09-19T03:23:14.542Z,0.20
2023-09-19T03:24:16.568Z,0.35
2023-09-19T03:25:19.001Z,0.30
2023-09-19T03:26:21.124Z,0.22
2023-09-19T03:27:23.575Z,0.25
2023-09-19T03:28:29.025Z,0.13
2023-09-19T03:29:35.316Z,0.32
2023-09-19T03:30:37.896Z,0.30
2023-09-19T03:31:40.344Z,0.50
2023-09-19T03:32:51.934Z,0.40
2023-09-19T03:33:53.978Z,0.20
2023-09-19T03:34:56.194Z,0.30
2023-09-19T03:36:02.177Z,0.25
2023-09-19T03:37:04.973Z,0.32
2023-09-19T03:38:08.199Z,0.40
2023-09-19T03:39:10.262Z,0.47
2023-09-19T03:40:13.405Z,0.17
2023-09-19T03:41:18.552Z,0.30
2023-09-19T03:42:26.547Z,0.32
2023-09-19T03:43:30.556Z,0.38
2023-09-19T03:44:32.649Z,0.52
2023-09-19T03:45:35.165Z,0.30
2023-09-19T03:46:37.462Z,0.25
2023-09-19T03:47:42.052Z,0.30
2023-09-19T03:48:44.730Z,0.30
2023-09-19T03:49:46.648Z,0.40
2023-09-19T03:50:49.432Z,0.30
2023-09-19T03:51:52.394Z,0.30
2023-09-19T03:52:58.418Z,0.30
2023-09-19T03:54:00.440Z,0.30
2023-09-19T03:55:05.881Z,0.55
2023-09-19T03:56:09.372Z,0.30
2023-09-19T03:57:16.978Z,0.40
2023-09-19T03:58:18.874Z,0.20
2023-09-19T03:59:21.113Z,0.20
2023-09-19T04:00:27.685Z,0.32
2023-09-19T04:01:31.912Z,0.38
2023-09-19T04:02:34.719Z,0.40
2023-09-19T04:03:47.486Z,0.40
2023-09-19T04:04:55.049Z,0.30
2023-09-19T04:05:57.164Z,0.30
2023-09-19T04:06:59.250Z,0.30
2023-09-19T04:08:01.141Z,0.50
2023-09-19T04:09:08.317Z,0.30
2023-09-19T04:10:12.614Z,0.40
2023-09-19T04:11:15.523Z,0.32
2023-09-19T04:12:20.453Z,0.30
2023-09-19T04:13:23.038Z,0.30
2023-09-19T04:14:26.015Z,0.20
2023-09-19T04:15:28.578Z,0.35
2023-09-19T04:16:30.547Z,0.13
2023-09-19T04:17:34.614Z,0.20
2023-09-19T04:18:40.504Z,0.40
2023-09-19T04:19:43.674Z,0.30
2023-09-19T04:20:53.778Z,0.30
2023-09-19T04:21:55.763Z,0.45
2023-09-19T04:22:58.727Z,0.30
2023-09-19T04:24:00.633Z,0.30
2023-09-19T04:25:03.504Z,0.15
2023-09-19T04:26:05.906Z,0.30
2023-09-19T04:27:10.936Z,0.70
2023-09-19T04:28:12.858Z,0.40
2023-09-19T04:29:15.642Z,0.30
2023-09-19T04:30:17.645Z,0.50
2023-09-19T04:31:20.832Z,0.30
2023-09-19T04:32:22.963Z,0.28
2023-09-19T04:33:24.919Z,0.38
2023-09-19T04:34:26.778Z,0.30
2023-09-19T04:35:30.489Z,0.50
2023-09-19T04:36:36.149Z,0.30
2023-09-19T04:37:43.737Z,0.20
2023-09-19T04:38:47.075Z,0.40
2023-09-19T04:39:49.162Z,0.40
2023-09-19T04:40:53.379Z,0.40
2023-09-19T04:41:55.946Z,0.25
2023-09-19T04:42:58.508Z,0.32
2023-09-19T04:44:00.898Z,0.40
2023-09-19T04:45:02.997Z,0.38
2023-09-19T04:46:08.056Z,0.10
2023-09-19T04:47:10.337Z,0.20
2023-09-19T04:48:13.286Z,0.32
2023-09-19T04:49:16.330Z,0.30
2023-09-19T04:50:19.598Z,0.30
2023-09-19T04:51:22.738Z,0.40
2023-09-19T04:52:24.775Z,0.30
2023-09-19T04:53:27.032Z,0.25
2023-09-19T04:54:30.525Z,0.32
2023-09-19T04:55:34.320Z,0.22
2023-09-19T04:56:36.392Z,0.30
2023-09-19T04:57:38.241Z,0.32
2023-09-19T04:58:40.294Z,0.28
2023-09-19T04:59:43.764Z,0.22
2023-09-19T05:00:46.132Z,0.40
2023-09-19T05:01:48.415Z,0.30
2023-09-19T05:02:53.278Z,0.50
2023-09-19T05:03:56.087Z,0.30
2023-09-19T05:05:00.574Z,0.40
2023-09-19T05:06:05.314Z,0.40
2023-09-19T05:07:07.686Z,0.47
2023-09-19T05:08:10.721Z,0.30
2023-09-19T05:09:13.012Z,0.30
2023-09-19T05:10:15.951Z,0.10
2023-09-19T05:11:23.207Z,0.30
2023-09-19T05:12:27.129Z,0.45
2023-09-19T05:13:28.987Z,0.35
2023-09-19T05:14:32.505Z,0.25
2023-09-19T05:15:35.044Z,0.30
2023-09-19T05:16:37.142Z,0.30
2023-09-19T05:17:40.712Z,0.20
2023-09-19T05:18:43.775Z,0.38
2023-09-19T05:19:47.173Z,0.30
2023-09-19T05:20:51.028Z,0.30
2023-09-19T05:21:53.271Z,0.43
2023-09-19T05:23:10.559Z,0.50
2023-09-19T05:24:15.731Z,0.30
2023-09-19T05:25:19.783Z,0.35
2023-09-19T05:26:24.122Z,0.43
2023-09-19T05:27:26.209Z,0.43
2023-09-19T05:28:30.755Z,0.35
2023-09-19T05:29:34.489Z,0.20
2023-09-19T05:30:37.523Z,0.50
2023-09-19T05:31:42.437Z,0.30
2023-09-19T05:32:45.142Z,0.50
2023-09-19T05:33:47.117Z,0.30
2023-09-19T05:34:48.997Z,0.22
2023-09-19T05:35:51.305Z,0.40
2023-09-19T05:36:56.421Z,0.38
2023-09-19T05:37:59.268Z,0.38
2023-09-19T05:39:02.706Z,0.32
2023-09-19T05:40:08.851Z,0.60
2023-09-19T05:41:14.700Z,0.22
2023-09-19T05:42:19.165Z,0.22
2023-09-19T05:43:23.587Z,0.30
2023-09-19T05:44:27.031Z,0.40
2023-09-19T05:45:29.033Z,1.00
2023-09-19T05:46:31.058Z,0.32
2023-09-19T05:47:36.583Z,0.40
2023-09-19T05:48:44.000Z,0.38
2023-09-19T05:49:46.521Z,0.43
2023-09-19T05:50:49.869Z,0.40
2023-09-19T05:51:55.373Z,0.35
2023-09-19T05:52:57.721Z,0.40
2023-09-19T05:53:59.802Z,0.22
2023-09-19T05:55:02.264Z,0.40
2023-09-19T05:56:07.068Z,0.38
2023-09-19T05:57:08.868Z,0.43
2023-09-19T05:58:11.523Z,0.30
2023-09-19T05:59:16.993Z,0.40
2023-09-19T06:00:24.431Z,0.43
2023-09-19T06:01:27.159Z,0.43
2023-09-19T06:02:31.612Z,0.45
2023-09-19T06:03:34.021Z,0.50
2023-09-19T06:04:36.260Z,0.40
2023-09-19T06:05:42.104Z,0.50
2023-09-19T06:06:44.323Z,0.40
2023-09-19T06:07:48.009Z,0.40
2023-09-19T06:08:51.682Z,0.70
2023-09-19T06:09:59.932Z,0.68
2023-09-19T06:11:01.970Z,0.45
2023-09-19T06:12:05.341Z,0.60
2023-09-19T06:13:07.556Z,0.50
2023-09-19T06:14:11.506Z,0.50
2023-09-19T06:15:20.460Z,0.50
2023-09-19T06:16:23.331Z,0.50
2023-09-19T06:17:25.260Z,0.55
2023-09-19T06:18:27.469Z,0.40
2023-09-19T06:19:29.756Z,0.60
2023-09-19T06:20:33.583Z,0.70
2023-09-19T06:21:35.843Z,0.70
2023-09-19T06:22:38.920Z,0.38
2023-09-19T06:23:41.048Z,0.47
2023-09-19T06:24:43.071Z,0.60
2023-09-19T06:25:45.290Z,0.70
2023-09-19T06:26:47.250Z,1.10
2023-09-19T06:27:55.290Z,1.27
2023-09-19T06:28:57.268Z,0.68
2023-09-19T06:29:59.308Z,0.90
2023-09-19T06:31:04.140Z,0.75
2023-09-19T06:32:12.747Z,0.70
2023-09-19T06:33:18.537Z,1.05
2023-09-19T06:34:22.125Z,0.80
2023-09-19T06:35:27.514Z,1.00
2023-09-19T06:36:29.644Z,0.90
2023-09-19T06:37:31.920Z,1.00
2023-09-19T06:38:37.806Z,1.30
2023-09-19T06:39:40.008Z,0.85
2023-09-19T06:40:43.997Z,1.30
2023-09-19T06:41:47.234Z,1.05
2023-09-19T06:42:54.004Z,0.95
2023-09-19T06:43:56.235Z,0.80
2023-09-19T06:44:58.090Z,1.20
2023-09-19T06:46:01.119Z,1.20
2023-09-19T06:47:04.180Z,0.95
2023-09-19T06:48:08.382Z,1.10
2023-09-19T06:49:11.914Z,0.90
2023-09-19T06:50:20.354Z,0.85
2023-09-19T06:51:22.833Z,1.20
2023-09-19T06:52:24.966Z,1.02
2023-09-19T06:53:26.955Z,0.93
2023-09-19T06:54:33.204Z,1.27
2023-09-19T06:55:36.474Z,1.38
2023-09-19T06:56:39.826Z,1.10
2023-09-19T06:57:41.780Z,1.00
2023-09-19T06:58:44.992Z,1.10
2023-09-19T06:59:48.333Z,1.30
2023-09-19T07:00:51.327Z,1.10
2023-09-19T07:01:53.958Z,1.00
2023-09-19T07:03:05.604Z,1.10
2023-09-19T07:04:07.826Z,1.00
2023-09-19T07:05:11.357Z,0.80
2023-09-19T07:06:15.362Z,1.00
2023-09-19T07:07:17.505Z,1.00
2023-09-19T07:08:20.066Z,1.00
2023-09-19T07:09:23.777Z,1.00
2023-09-19T07:10:27.321Z,0.85
2023-09-19T07:11:31.955Z,0.95
2023-09-19T07:12:36.975Z,0.90
2023-09-19T07:13:39.869Z,1.00
2023-09-19T07:14:42.166Z,1.00
2023-09-19T07:15:48.143Z,1.17
2023-09-19T07:16:50.688Z,1.00
2023-09-19T07:17:55.114Z,0.70
2023-09-19T07:18:57.985Z,1.13
2023-09-19T07:20:00.378Z,0.90
2023-09-19T07:21:06.458Z,1.00
2023-09-19T07:22:09.032Z,0.85
2023-09-19T07:23:10.926Z,0.80
2023-09-19T07:24:14.797Z,0.70
2023-09-19T07:25:18.018Z,1.30
2023-09-19T07:26:20.338Z,1.15
2023-09-19T07:27:22.838Z,1.08
2023-09-19T07:28:24.765Z,1.40
2023-09-19T07:29:27.605Z,1.20
2023-09-19T07:30:30.523Z,0.80
2023-09-19T07:31:32.707Z,0.90
2023-09-19T07:32:38.072Z,1.02
2023-09-19T07:33:41.583Z,1.02
2023-09-19T07:34:45.857Z,1.13
2023-09-19T07:35:51.529Z,0.80
2023-09-19T07:36:54.263Z,0.85
2023-09-19T07:37:57.847Z,0.88
2023-09-19T07:39:13.146Z,0.70
2023-09-19T07:40:25.838Z,1.08
2023-09-19T07:41:30.145Z,0.98
2023-09-19T07:42:33.145Z,1.10
2023-09-19T07:43:35.367Z,0.80
2023-09-19T07:44:38.665Z,0.90
2023-09-19T07:45:40.929Z,1.05
2023-09-19T07:46:43.183Z,0.80
2023-09-19T07:47:50.573Z,0.73
2023-09-19T07:48:53.161Z,1.08
2023-09-19T07:49:57.247Z,0.80
2023-09-19T07:51:08.384Z,0.60
2023-09-19T07:52:11.432Z,0.77
2023-09-19T07:53:14.601Z,0.80
2023-09-19T07:54:18.093Z,0.93
2023-09-19T07:55:25.000Z,0.90
2023-09-19T07:56:28.751Z,0.60
2023-09-19T07:57:31.187Z,0.68
2023-09-19T07:58:34.542Z,0.70
2023-09-19T07:59:37.586Z,0.80
2023-09-19T08:00:40.029Z,0.73
2023-09-19T08:01:42.122Z,0.57
2023-09-19T08:02:45.291Z,0.65
2023-09-19T08:03:49.562Z,0.77
2023-09-19T08:04:53.532Z,0.40
2023-09-19T08:05:59.084Z,0.80
2023-09-19T08:07:01.604Z,0.52
2023-09-19T08:08:04.155Z,0.65
2023-09-19T08:09:10.026Z,0.80
2023-09-19T08:10:16.824Z,0.63
2023-09-19T08:11:22.863Z,0.75
2023-09-19T08:12:24.876Z,0.65
2023-09-19T08:13:27.477Z,0.60
2023-09-19T08:14:30.272Z,0.90
2023-09-19T08:15:32.602Z,0.77
2023-09-19T08:16:34.765Z,0.80
2023-09-19T08:17:37.055Z,0.65
2023-09-19T08:18:41.527Z,0.75
2023-09-19T08:19:45.987Z,0.77
2023-09-19T08:20:53.721Z,0.77
2023-09-19T08:22:05.456Z,0.30
2023-09-19T08:23:09.385Z,0.70
2023-09-19T08:24:11.232Z,0.70
2023-09-19T08:25:13.550Z,0.60
2023-09-19T08:26:15.574Z,0.50
2023-09-19T08:27:19.362Z,0.80
2023-09-19T08:28:25.920Z,0.60
2023-09-19T08:29:31.061Z,0.50
2023-09-19T08:30:35.907Z,0.63
2023-09-19T08:31:38.704Z,0.65
2023-09-19T08:32:43.632Z,0.63
2023-09-19T08:33:50.097Z,0.55
2023-09-19T08:34:52.381Z,0.63
2023-09-19T08:35:57.641Z,0.60
2023-09-19T08:36:59.536Z,0.80
2023-09-19T08:38:05.176Z,0.70
2023-09-19T08:39:07.302Z,0.63
2023-09-19T08:40:14.097Z,0.47
2023-09-19T08:41:19.537Z,0.75
2023-09-19T08:42:26.417Z,0.80
2023-09-19T08:43:29.478Z,0.98
2023-09-19T08:44:37.492Z,0.60
2023-09-19T08:45:41.072Z,0.80
2023-09-19T08:46:45.208Z,0.60
2023-09-19T08:47:58.961Z,0.80
2023-09-19T08:49:30.301Z,0.80
2023-09-19T08:50:34.608Z,0.70
2023-09-19T08:51:47.440Z,0.85
2023-09-19T08:52:56.214Z,0.70
2023-09-19T08:54:09.020Z,0.60
2023-09-19T08:55:23.185Z,0.60
2023-09-19T08:56:28.450Z,0.60
2023-09-19T08:57:34.574Z,0.60
2023-09-19T08:58:48.089Z,0.43
2023-09-19T08:59:50.943Z,0.68
2023-09-19T09:00:56.419Z,0.80
2023-09-19T09:02:00.234Z,0.80
2023-09-19T09:03:05.213Z,0.70
2023-09-19T09:04:14.263Z,0.60
2023-09-19T09:05:24.358Z,0.55
2023-09-19T09:06:29.291Z,0.70
2023-09-19T09:07:31.780Z,0.90
2023-09-19T09:08:34.255Z,0.88
2023-09-19T09:09:37.080Z,0.60
2023-09-19T09:10:39.286Z,0.75
2023-09-19T09:11:42.499Z,1.05
2023-09-19T09:12:45.066Z,0.80
2023-09-19T09:13:49.295Z,0.77
2023-09-19T09:14:52.203Z,0.70
2023-09-19T09:15:55.702Z,0.88
2023-09-19T09:17:00.198Z,0.85
2023-09-19T09:18:04.023Z,0.60
2023-09-19T09:19:06.863Z,0.68
2023-09-19T09:20:11.097Z,0.80
2023-09-19T09:21:14.845Z,0.57
2023-09-19T09:22:17.676Z,0.80
2023-09-19T09:23:19.979Z,0.75
2023-09-19T09:24:34.939Z,0.98
2023-09-19T09:25:58.283Z,0.60
2023-09-19T09:27:01.146Z,0.65
2023-09-19T09:28:04.386Z,0.73
2023-09-19T09:29:06.311Z,0.65
2023-09-19T09:30:09.410Z,1.10
2023-09-19T09:31:25.901Z,0.80
2023-09-19T09:32:32.714Z,0.63
2023-09-19T09:33:37.042Z,0.65
2023-09-19T09:34:39.095Z,0.77
2023-09-19T09:36:03.796Z,0.80
2023-09-19T09:37:06.280Z,0.82
2023-09-19T09:38:10.836Z,0.50
2023-09-19T09:39:26.365Z,0.85
2023-09-19T09:40:53.388Z,0.73
2023-09-19T09:41:55.295Z,0.60
2023-09-19T09:43:00.023Z,0.55
2023-09-19T09:44:19.070Z,0.68
2023-09-19T09:45:35.103Z,0.57
2023-09-19T09:47:16.163Z,0.80
2023-09-19T09:48:33.082Z,0.68
2023-09-19T09:49:35.761Z,0.80
2023-09-19T09:50:52.686Z,0.57
2023-09-19T09:52:12.298Z,0.68
2023-09-19T09:53:33.790Z,0.93
2023-09-19T09:54:40.476Z,0.80
2023-09-19T09:56:02.490Z,0.68
2023-09-19T09:57:24.407Z,0.60
2023-09-19T09:58:30.423Z,0.73
2023-09-19T09:59:52.093Z,0.75
2023-09-19T10:01:03.947Z,0.68
2023-09-19T10:02:06.386Z,0.60
2023-09-19T10:03:24.690Z,0.80
2023-09-19T10:04:37.819Z,0.70
2023-09-19T10:05:46.541Z,0.90
2023-09-19T10:06:52.857Z,1.00
2023-09-19T10:08:01.602Z,0.50
2023-09-19T10:09:30.559Z,0.75
2023-09-19T10:10:44.057Z,0.52
2023-09-19T10:12:03.100Z,0.80
2023-09-19T10:13:08.632Z,0.65
2023-09-19T10:14:24.841Z,0.93
2023-09-19T10:15:33.195Z,0.90
2023-09-19T10:16:40.414Z,0.80
2023-09-19T10:17:47.979Z,0.57
2023-09-19T10:18:56.463Z,0.50
2023-09-19T10:20:02.362Z,0.70
2023-09-19T10:21:06.091Z,0.73
2023-09-19T10:22:10.953Z,0.63
2023-09-19T10:23:14.174Z,0.57
2023-09-19T10:24:18.741Z,0.88
2023-09-19T10:25:24.041Z,0.95
2023-09-19T10:26:32.277Z,0.88
2023-09-19T10:27:38.987Z,0.50
2023-09-19T10:28:41.376Z,0.80
2023-09-19T10:29:48.367Z,0.52
2023-09-19T10:30:53.405Z,0.52
2023-09-19T10:31:59.871Z,0.80
2023-09-19T10:33:06.841Z,0.90
2023-09-19T10:34:11.112Z,0.85
2023-09-19T10:35:17.818Z,0.60
2023-09-19T10:36:21.599Z,0.70
2023-09-19T10:37:28.571Z,0.80
2023-09-19T10:38:34.155Z,0.70
2023-09-19T10:39:41.950Z,0.77
2023-09-19T10:40:47.522Z,0.60
2023-09-19T10:41:59.855Z,0.60
2023-09-19T10:43:08.997Z,0.50
2023-09-19T10:44:11.284Z,0.68
2023-09-19T10:45:17.087Z,0.70
2023-09-19T10:46:19.611Z,0.60
2023-09-19T10:48:28.010Z,0.73
2023-09-19T10:49:32.632Z,0.63
2023-09-19T10:50:56.687Z,0.80
2023-09-19T10:52:03.010Z,0.80
2023-09-19T10:53:09.817Z,0.65
2023-09-19T10:54:21.383Z,0.68
2023-09-19T10:55:25.311Z,0.50
2023-09-19T10:56:42.842Z,0.75
2023-09-19T10:57:48.110Z,0.60
2023-09-19T10:58:50.881Z,0.60
2023-09-19T11:00:28.109Z,0.43
2023-09-19T11:01:49.459Z,0.70
2023-09-19T11:03:10.432Z,0.63
2023-09-19T11:04:33.505Z,0.60
2023-09-19T11:05:36.239Z,0.60
2023-09-19T11:06:42.681Z,1.00
2023-09-19T11:08:06.440Z,0.73
2023-09-19T11:09:11.365Z,0.80
2023-09-19T11:10:50.910Z,0.70
2023-09-19T11:11:56.799Z,0.60
2023-09-19T11:12:59.580Z,0.60
2023-09-19T11:14:29.965Z,0.70
2023-09-19T11:16:06.193Z,0.88
2023-09-19T11:17:16.940Z,0.43
2023-09-19T11:18:44.142Z,0.40
2023-09-19T11:20:13.338Z,0.60
2023-09-19T11:21:32.047Z,0.45
2023-09-19T11:22:58.971Z,0.50
2023-09-19T11:24:25.900Z,0.77
2023-09-19T11:25:39.442Z,0.63
2023-09-19T11:26:53.339Z,0.60
2023-09-19T11:28:08.903Z,0.50
2023-09-19T11:29:31.262Z,0.60
2023-09-19T11:30:35.460Z,0.47
2023-09-19T11:31:51.357Z,0.47
2023-09-19T11:33:30.295Z,0.50
2023-09-19T11:34:39.540Z,0.68
2023-09-19T11:36:20.609Z,0.60
2023-09-19T11:37:34.306Z,0.60
2023-09-19T11:38:51.225Z,0.68
2023-09-19T11:40:18.323Z,0.47
2023-09-19T11:41:23.992Z,0.57
2023-09-19T11:42:55.997Z,0.50
2023-09-19T11:44:05.243Z,0.50
2023-09-19T11:45:07.527Z,0.50
2023-09-19T11:46:10.113Z,0.60
2023-09-19T11:47:13.673Z,0.70
2023-09-19T11:48:19.582Z,0.50
2023-09-19T11:49:31.330Z,0.40
2023-09-19T11:50:35.916Z,0.60
2023-09-19T11:51:46.629Z,0.52
2023-09-19T11:52:49.903Z,0.63
2023-09-19T11:53:53.468Z,0.50
2023-09-19T11:55:03.298Z,0.47
2023-09-19T11:56:11.378Z,0.82
2023-09-19T11:57:22.785Z,0.50
2023-09-19T11:58:27.609Z,0.40
2023-09-19T11:59:31.734Z,0.50
2023-09-19T12:00:36.685Z,0.65
2023-09-19T12:01:51.550Z,0.70
2023-09-19T12:03:04.203Z,0.75
2023-09-19T12:04:07.036Z,0.70
2023-09-19T12:05:10.665Z,0.85
2023-09-19T12:06:16.014Z,0.82
2023-09-19T12:07:19.745Z,0.73
2023-09-19T12:08:22.780Z,0.60
2023-09-19T12:09:26.473Z,0.68
2023-09-19T12:10:29.030Z,0.50
2023-09-19T12:11:36.974Z,0.73
2023-09-19T12:12:39.114Z,0.63
2023-09-19T12:13:49.962Z,0.57
2023-09-19T12:14:52.449Z,0.68
2023-09-19T12:16:01.617Z,0.75
2023-09-19T12:17:06.224Z,0.80
2023-09-19T12:18:08.984Z,0.80
2023-09-19T12:19:24.126Z,0.70
2023-09-19T12:20:26.212Z,0.50
2023-09-19T12:21:36.758Z,0.80
2023-09-19T12:22:47.925Z,0.60
2023-09-19T12:24:07.761Z,0.77
2023-09-19T12:25:12.086Z,0.70
2023-09-19T12:26:14.750Z,0.45
2023-09-19T12:27:17.205Z,0.70
2023-09-19T12:28:19.280Z,0.88
2023-09-19T12:29:23.236Z,0.77
2023-09-19T12:30:37.248Z,0.80
2023-09-19T12:31:59.036Z,0.60
2023-09-19T12:33:01.167Z,0.52
2023-09-19T12:34:04.004Z,0.50
2023-09-19T12:35:12.157Z,0.68
2023-09-19T12:36:31.250Z,0.70
2023-09-19T12:37:37.164Z,0.70
2023-09-19T12:38:39.294Z,0.63
2023-09-19T12:39:45.536Z,0.80
2023-09-19T12:40:52.530Z,0.68
2023-09-19T12:41:55.332Z,0.63
2023-09-19T12:43:00.120Z,0.80
2023-09-19T12:44:03.560Z,0.50
2023-09-19T12:45:10.510Z,0.50
2023-09-19T12:46:12.414Z,0.80
2023-09-19T12:47:25.358Z,0.73
2023-09-19T12:48:32.669Z,0.73
2023-09-19T12:49:37.087Z,0.80
2023-09-19T12:51:13.147Z,0.60
2023-09-19T12:52:15.108Z,0.80
2023-09-19T12:53:31.313Z,0.60
2023-09-19T12:54:42.302Z,0.80
2023-09-19T12:55:44.982Z,0.65
2023-09-19T12:56:48.926Z,0.80
2023-09-19T12:58:14.346Z,0.50
2023-09-19T12:59:16.961Z,0.68
2023-09-19T13:00:19.070Z,0.85
2023-09-19T13:01:21.957Z,0.60
2023-09-19T13:02:25.585Z,0.60
2023-09-19T13:03:37.232Z,0.90
2023-09-19T13:04:41.508Z,0.70
2023-09-19T13:05:57.123Z,0.80
2023-09-19T13:07:06.467Z,0.80
2023-09-19T13:08:28.078Z,0.45
2023-09-19T13:09:39.529Z,0.60
2023-09-19T13:11:14.557Z,0.55
2023-09-19T13:12:40.321Z,0.80
2023-09-19T13:14:33.431Z,0.60
2023-09-19T13:15:53.604Z,0.65
2023-09-19T13:17:24.712Z,0.75
2023-09-19T13:18:28.108Z,0.70
2023-09-19T13:19:42.004Z,0.75
2023-09-19T13:20:50.554Z,0.77
2023-09-19T13:21:55.840Z,0.73
2023-09-19T13:23:01.208Z,0.60
2023-09-19T13:24:31.461Z,0.60
2023-09-19T13:25:34.567Z,0.60
2023-09-19T13:26:36.585Z,0.75
2023-09-19T13:27:38.465Z,0.63
2023-09-19T13:28:42.560Z,0.68
2023-09-19T13:29:44.489Z,0.75
2023-09-19T13:30:49.450Z,0.80
2023-09-19T13:31:54.931Z,0.65
2023-09-19T13:33:11.085Z,0.75
2023-09-19T13:34:15.363Z,0.73
2023-09-19T13:35:18.474Z,1.00
2023-09-19T13:36:20.476Z,0.80
2023-09-19T13:37:24.208Z,0.70
2023-09-19T13:38:29.687Z,0.47
2023-09-19T13:39:31.952Z,0.65
2023-09-19T13:40:36.443Z,0.70
2023-09-19T13:41:40.265Z,0.70
2023-09-19T13:42:43.833Z,0.70
2023-09-19T13:43:49.317Z,0.85
2023-09-19T13:44:52.652Z,0.80
2023-09-19T13:45:54.587Z,0.73
2023-09-19T13:46:58.067Z,0.98
2023-09-19T13:48:00.377Z,0.68
2023-09-19T13:49:04.846Z,0.75
2023-09-19T13:50:07.861Z,0.50
2023-09-19T13:51:10.162Z,0.85
2023-09-19T13:52:14.041Z,0.80
2023-09-19T13:53:16.214Z,0.57
2023-09-19T13:54:18.417Z,0.73
2023-09-19T13:55:23.325Z,0.77
2023-09-19T13:56:29.082Z,0.57
2023-09-19T13:57:31.382Z,0.90
2023-09-19T13:58:34.890Z,0.85
2023-09-19T13:59:40.049Z,0.80
2023-09-19T14:00:42.833Z,0.85
2023-09-19T14:01:45.144Z,0.77
2023-09-19T14:02:48.519Z,0.77
2023-09-19T14:03:52.407Z,0.70
2023-09-19T14:04:54.677Z,0.60
2023-09-19T14:05:57.291Z,0.60
2023-09-19T14:07:02.236Z,0.90
2023-09-19T14:08:04.704Z,0.60
2023-09-19T14:09:06.813Z,0.80
2023-09-19T14:10:09.834Z,0.75
2023-09-19T14:11:12.013Z,0.80
2023-09-19T14:12:15.250Z,0.75
2023-09-19T14:13:17.192Z,0.77
2023-09-19T14:14:21.811Z,0.65
2023-09-19T14:15:30.668Z,0.52
2023-09-19T14:16:34.854Z,0.70
2023-09-19T14:17:37.872Z,0.60
2023-09-19T14:18:41.513Z,0.65
2023-09-19T14:19:46.644Z,0.55
2023-09-19T14:20:48.732Z,0.60
2023-09-19T14:21:52.641Z,0.80
2023-09-19T14:22:56.164Z,0.70
2023-09-19T14:23:58.229Z,0.65
2023-09-19T14:25:00.880Z,0.60
2023-09-19T14:26:03.533Z,0.82
2023-09-19T14:27:07.369Z,0.57
2023-09-19T14:28:09.966Z,0.50
2023-09-19T14:29:12.768Z,0.80
2023-09-19T14:30:15.797Z,0.65
2023-09-19T14:31:18.052Z,0.75
2023-09-19T14:32:20.351Z,0.68
2023-09-19T14:33:22.381Z,0.77
2023-09-19T14:34:24.346Z,0.80
2023-09-19T14:35:26.499Z,0.95
2023-09-19T14:36:29.489Z,0.77
2023-09-19T14:37:32.422Z,0.73
2023-09-19T14:38:40.013Z,0.88
2023-09-19T14:39:46.186Z,0.60
2023-09-19T14:40:51.108Z,0.80
2023-09-19T14:41:53.419Z,0.80
2023-09-19T14:42:55.520Z,0.88
2023-09-19T14:43:57.416Z,0.70
2023-09-19T14:44:59.377Z,0.95
2023-09-19T14:46:12.073Z,1.05
2023-09-19T14:47:14.622Z,0.50
2023-09-19T14:48:17.036Z,0.80
2023-09-19T14:49:19.115Z,0.80